createdAt,value
2022-12-18T00:00:19.707Z,0.90
2022-12-18T00:05:17.044Z,0.90
2022-12-18T00:10:15.362Z,0.90
2022-12-18T00:15:12.884Z,1.00
2022-12-18T00:20:10.558Z,1.20
2022-12-18T00:25:08.642Z,1.20
2022-12-18T00:30:06.558Z,1.20
2022-12-18T00:35:04.670Z,1.20
2022-12-18T00:40:02.099Z,1.10
2022-12-18T00:44:59.564Z,1.00
2022-12-18T00:49:56.943Z,1.10
2022-12-18T00:54:54.328Z,1.00
2022-12-18T00:59:51.508Z,1.10
2022-12-18T01:04:48.848Z,1.10
2022-12-18T01:09:49.286Z,1.00
2022-12-18T01:14:46.782Z,1.00
2022-12-18T01:19:44.209Z,1.00
2022-12-18T01:24:41.537Z,1.10
2022-12-18T01:29:38.722Z,1.20
2022-12-18T01:34:39.393Z,1.30
2022-12-18T01:39:36.709Z,1.30
2022-12-18T01:44:56.270Z,1.30
2022-12-18T01:49:55.285Z,1.30
2022-12-18T01:54:54.331Z,1.40
2022-12-18T01:59:55.034Z,1.50
2022-12-18T02:04:52.469Z,1.50
2022-12-18T02:10:13.073Z,1.40
2022-12-18T02:15:39.074Z,1.30
2022-12-18T02:21:10.742Z,1.20
2022-12-18T02:26:29.033Z,1.20
2022-12-18T02:31:31.269Z,1.10
2022-12-18T02:36:30.249Z,1.20
2022-12-18T02:41:27.942Z,1.20
2022-12-18T02:46:55.289Z,1.20
2022-12-18T02:52:03.235Z,1.10
2022-12-18T02:57:06.835Z,1.00
2022-12-18T03:02:43.361Z,1.00
2022-12-18T03:07:54.194Z,1.10
2022-12-18T03:13:16.445Z,1.10
2022-12-18T03:18:43.960Z,1.10
2022-12-18T03:23:51.377Z,1.20
2022-12-18T03:29:02.187Z,1.30
2022-12-18T03:34:05.229Z,1.20
2022-12-18T03:39:02.779Z,1.20
2022-12-18T03:44:12.063Z,1.10
2022-12-18T03:49:20.963Z,1.00
2022-12-18T03:54:19.375Z,1.10
2022-12-18T03:59:18.154Z,1.10
2022-12-18T04:04:17.973Z,0.90
2022-12-18T04:09:15.964Z,1.00
2022-12-18T04:14:18.293Z,0.90
2022-12-18T04:19:16.067Z,1.00
2022-12-18T04:24:13.368Z,0.90
2022-12-18T04:29:13.993Z,0.90
2022-12-18T04:34:11.626Z,0.90
2022-12-18T04:39:09.741Z,0.90
2022-12-18T04:44:09.656Z,1.00
2022-12-18T04:49:06.994Z,1.00
2022-12-18T04:54:04.481Z,0.90
2022-12-18T04:59:02.101Z,0.90
2022-12-18T05:04:02.061Z,0.80
2022-12-18T05:09:01.406Z,0.80
2022-12-18T05:13:59.477Z,0.80
2022-12-18T05:19:00.125Z,1.00
2022-12-18T05:23:58.172Z,0.90
2022-12-18T05:28:57.795Z,0.90
2022-12-18T05:33:55.313Z,0.80
2022-12-18T05:38:52.614Z,0.80
2022-12-18T05:43:49.831Z,0.90
2022-12-18T05:48:47.933Z,0.90
2022-12-18T05:53:45.555Z,0.80
2022-12-18T05:58:43.727Z,0.80
2022-12-18T06:03:41.431Z,1.00
2022-12-18T06:08:44.380Z,0.90
2022-12-18T06:13:43.373Z,0.90
2022-12-18T06:18:40.677Z,0.80
2022-12-18T06:23:38.360Z,0.80
2022-12-18T06:28:35.918Z,0.80
2022-12-18T06:33:35.181Z,0.80
2022-12-18T06:38:34.299Z,0.90
2022-12-18T06:43:31.591Z,0.80
2022-12-18T06:48:28.867Z,0.80
2022-12-18T06:53:27.031Z,0.80
2022-12-18T06:58:24.327Z,0.90
2022-12-18T07:03:21.694Z,0.90
2022-12-18T07:08:18.916Z,0.90
2022-12-18T07:13:17.494Z,0.90
2022-12-18T07:18:14.753Z,0.90
2022-12-18T07:23:15.365Z,1.00
2022-12-18T07:28:17.344Z,1.10
2022-12-18T07:33:15.029Z,1.30
2022-12-18T07:38:12.200Z,1.20
2022-12-18T07:43:09.565Z,1.30
2022-12-18T07:48:06.798Z,1.30
2022-12-18T07:53:05.850Z,1.40
2022-12-18T07:58:04.272Z,1.30
2022-12-18T08:03:01.817Z,1.50
2022-12-18T08:07:59.821Z,1.70
2022-12-18T08:13:03.125Z,1.70
2022-12-18T08:18:02.653Z,1.80
2022-12-18T08:23:00.030Z,1.90
2022-12-18T08:27:57.954Z,2.00
2022-12-18T08:32:55.353Z,2.10
2022-12-18T08:37:53.524Z,2.20
2022-12-18T08:43:09.474Z,2.20
2022-12-18T08:48:07.004Z,2.10
2022-12-18T08:53:04.741Z,2.10
2022-12-18T08:58:02.345Z,2.20
2022-12-18T09:03:00.077Z,2.30
2022-12-18T09:07:57.696Z,2.40
2022-12-18T09:12:54.829Z,2.60
2022-12-18T09:17:53.963Z,2.50
2022-12-18T09:22:51.203Z,2.60
2022-12-18T09:27:49.319Z,2.90
2022-12-18T09:32:46.598Z,3.10
2022-12-18T09:37:44.218Z,3.20
2022-12-18T09:42:47.062Z,3.10
2022-12-18T09:47:46.390Z,3.10
2022-12-18T09:52:48.558Z,3.10
2022-12-18T09:57:54.297Z,3.20
2022-12-18T10:03:00.048Z,3.30
2022-12-18T10:08:03.741Z,3.30
2022-12-18T10:13:10.319Z,3.60
2022-12-18T10:18:48.894Z,3.80
2022-12-18T10:23:57.722Z,3.90
2022-12-18T10:28:56.943Z,3.80
2022-12-18T10:33:56.374Z,3.70
2022-12-18T10:38:55.293Z,3.70
2022-12-18T10:44:13.718Z,3.70
2022-12-18T10:49:27.212Z,3.80
2022-12-18T10:54:26.526Z,4.00
2022-12-18T10:59:24.333Z,4.00
2022-12-18T11:04:27.743Z,4.10
2022-12-18T11:09:36.473Z,3.70
2022-12-18T11:14:46.819Z,3.70
2022-12-18T11:19:44.869Z,3.90
2022-12-18T11:24:42.123Z,4.10
2022-12-18T11:29:46.360Z,3.80
2022-12-18T11:34:49.427Z,3.90
2022-12-18T11:39:54.138Z,4.10
2022-12-18T11:45:00.784Z,3.90
2022-12-18T11:50:02.445Z,4.00
2022-12-18T11:55:14.566Z,3.90
2022-12-18T12:00:25.049Z,3.80
2022-12-18T12:05:47.532Z,3.70
2022-12-18T12:11:24.251Z,3.70
2022-12-18T12:16:47.310Z,3.70
2022-12-18T12:21:54.994Z,3.80
2022-12-18T12:27:07.842Z,3.80
2022-12-18T12:32:17.186Z,3.70
2022-12-18T12:37:23.298Z,3.60
2022-12-18T12:42:43.874Z,3.90
2022-12-18T12:47:45.743Z,3.80
2022-12-18T12:52:50.689Z,3.60
2022-12-18T12:58:04.829Z,3.70
2022-12-18T13:03:17.948Z,3.80
2022-12-18T13:08:27.844Z,3.70
2022-12-18T13:13:52.906Z,3.60
2022-12-18T13:19:00.710Z,3.40
2022-12-18T13:24:15.376Z,3.40
2022-12-18T13:29:12.692Z,3.40
2022-12-18T13:34:34.674Z,3.50
2022-12-18T13:39:37.020Z,3.30
2022-12-18T13:44:40.853Z,3.20
2022-12-18T13:49:44.469Z,3.10
2022-12-18T13:54:44.146Z,3.10
2022-12-18T13:59:41.489Z,3.10
2022-12-18T14:04:41.656Z,3.10
2022-12-18T14:09:41.736Z,3.10
2022-12-18T14:14:41.617Z,3.00
2022-12-18T14:19:42.763Z,2.80
2022-12-18T14:24:40.564Z,2.80
2022-12-18T14:29:37.816Z,2.90
2022-12-18T14:34:35.109Z,2.70
2022-12-18T14:39:32.313Z,2.60
2022-12-18T14:44:39.111Z,2.50
2022-12-18T14:49:47.831Z,2.50
2022-12-18T14:54:48.398Z,2.50
2022-12-18T14:59:45.790Z,2.50
2022-12-18T15:04:44.896Z,2.30
2022-12-18T15:09:45.277Z,2.20
2022-12-18T15:14:43.237Z,2.20
2022-12-18T15:19:43.007Z,2.30
2022-12-18T15:24:40.562Z,2.20
2022-12-18T15:29:38.045Z,2.00
2022-12-18T15:34:35.485Z,2.10
2022-12-18T15:39:32.833Z,2.00
2022-12-18T15:44:30.687Z,2.10
2022-12-18T15:49:30.907Z,2.00
2022-12-18T15:54:47.180Z,1.90
2022-12-18T15:59:44.429Z,1.90
2022-12-18T16:04:41.831Z,1.80
2022-12-18T16:09:39.864Z,1.70
2022-12-18T16:14:43.403Z,1.70
2022-12-18T16:19:44.398Z,1.90
2022-12-18T16:24:43.892Z,1.90
2022-12-18T16:29:41.700Z,1.90
2022-12-18T16:34:39.106Z,1.70
2022-12-18T16:39:38.079Z,1.70
2022-12-18T16:44:36.149Z,1.70
2022-12-18T16:49:34.786Z,1.70
2022-12-18T16:54:33.796Z,1.70
2022-12-18T16:59:32.097Z,1.70
2022-12-18T17:04:29.786Z,1.70
2022-12-18T17:09:27.988Z,1.70
2022-12-18T17:14:26.983Z,1.70
2022-12-18T17:19:31.264Z,1.70
2022-12-18T17:24:33.069Z,1.70
2022-12-18T17:29:33.153Z,1.60
2022-12-18T17:34:30.805Z,1.60
2022-12-18T17:39:29.129Z,1.70
2022-12-18T17:44:27.136Z,1.80
2022-12-18T17:54:40.189Z,1.60
2022-12-18T17:59:40.706Z,1.60
2022-12-18T18:04:38.125Z,1.80
2022-12-18T18:09:35.332Z,1.70
2022-12-18T18:14:33.546Z,1.60
2022-12-18T18:19:31.346Z,1.70
2022-12-18T18:24:28.761Z,1.70
2022-12-18T18:29:29.031Z,1.80
2022-12-18T18:34:29.681Z,1.90
2022-12-18T18:39:27.292Z,1.70
2022-12-18T18:44:26.032Z,1.60
2022-12-18T18:49:27.187Z,1.60
2022-12-18T18:54:27.083Z,1.70
2022-12-18T18:59:31.725Z,1.60
2022-12-18T19:04:29.709Z,1.70
2022-12-18T19:09:26.999Z,1.50
2022-12-18T19:14:26.106Z,1.50
2022-12-18T19:19:23.699Z,1.40
2022-12-18T19:24:22.511Z,1.40
2022-12-18T19:29:20.316Z,1.60
2022-12-18T19:34:17.620Z,1.60
2022-12-18T19:39:18.264Z,1.60
2022-12-18T19:44:18.257Z,1.60
2022-12-18T19:49:18.247Z,1.60
2022-12-18T19:54:17.528Z,1.60
2022-12-18T19:59:17.923Z,1.50
2022-12-18T20:04:17.896Z,1.40
2022-12-18T20:09:15.595Z,1.40
2022-12-18T20:14:20.640Z,1.40
2022-12-18T20:19:21.130Z,1.60
2022-12-18T20:24:21.307Z,1.60
2022-12-18T20:29:18.434Z,1.60
2022-12-18T20:34:16.344Z,1.50
2022-12-18T20:39:18.091Z,1.50
2022-12-18T20:44:22.489Z,1.30
2022-12-18T20:49:20.638Z,1.30
2022-12-18T20:54:19.966Z,1.30
2022-12-18T20:59:18.135Z,1.40
2022-12-18T21:04:15.642Z,1.40
2022-12-18T21:09:16.287Z,1.40
2022-12-18T21:14:22.122Z,1.40
2022-12-18T21:19:23.378Z,1.50
2022-12-18T21:24:21.432Z,1.60
2022-12-18T21:29:24.253Z,1.60
2022-12-18T21:34:25.707Z,1.70
2022-12-18T21:39:24.248Z,1.60
2022-12-18T21:44:23.393Z,1.50
2022-12-18T21:49:21.560Z,1.50
2022-12-18T21:54:19.728Z,1.40
2022-12-18T21:59:23.056Z,1.40
2022-12-18T22:04:20.722Z,1.40
2022-12-18T22:09:21.346Z,1.40
2022-12-18T22:14:18.548Z,1.40
2022-12-18T22:19:17.099Z,1.50
2022-12-18T22:24:17.192Z,1.40
2022-12-18T22:29:35.901Z,1.30
2022-12-18T22:34:36.401Z,1.20
2022-12-18T22:39:34.114Z,1.30
2022-12-18T22:44:31.902Z,1.40
2022-12-18T22:49:29.322Z,1.40
2022-12-18T22:54:26.624Z,1.40
2022-12-18T22:59:24.129Z,1.40
2022-12-18T23:04:22.874Z,1.50
2022-12-18T23:09:22.704Z,1.40
2022-12-18T23:14:20.226Z,1.50
2022-12-18T23:19:17.536Z,1.50
2022-12-18T23:24:15.486Z,1.40
2022-12-18T23:29:13.339Z,1.20
2022-12-18T23:34:13.398Z,1.20
2022-12-18T23:39:12.365Z,1.10
2022-12-18T23:44:12.696Z,1.20
2022-12-18T23:49:10.258Z,1.20
2022-12-18T23:54:08.711Z,1.20
2022-12-18T23:59:06.061Z,1.20
